createdAt,value
2019-02-11T00:01:40.736Z,4.51
2019-02-11T00:04:09.810Z,4.47
2019-02-11T00:06:39.610Z,4.32
2019-02-11T00:09:11.602Z,4.29
2019-02-11T00:11:40.707Z,4.17
2019-02-11T00:14:09.848Z,4.20
2019-02-11T00:16:40.362Z,4.11
2019-02-11T00:19:11.052Z,4.04
2019-02-11T00:21:40.254Z,4.15
2019-02-11T00:24:09.346Z,4.04
2019-02-11T00:26:38.480Z,4.11
2019-02-11T00:29:07.597Z,4.15
2019-02-11T00:31:36.677Z,4.10
2019-02-11T00:34:06.274Z,4.08
2019-02-11T00:36:35.454Z,4.09
2019-02-11T00:39:05.608Z,4.18
2019-02-11T00:41:34.757Z,4.15
2019-02-11T00:44:03.800Z,4.16
2019-02-11T00:46:36.625Z,4.27
2019-02-11T00:49:05.971Z,4.21
2019-02-11T00:51:35.305Z,4.27
2019-02-11T00:54:04.471Z,4.28
2019-02-11T00:56:34.871Z,4.23
2019-02-11T00:59:05.334Z,4.24
2019-02-11T01:01:35.276Z,4.23
2019-02-11T01:04:04.580Z,4.26
2019-02-11T01:06:33.906Z,4.30
2019-02-11T01:09:03.130Z,4.40
2019-02-11T01:11:32.247Z,4.35
2019-02-11T01:14:01.452Z,4.38
2019-02-11T01:16:30.877Z,4.33
2019-02-11T01:18:59.965Z,4.34
2019-02-11T01:21:29.009Z,4.47
2019-02-11T01:23:58.197Z,4.41
2019-02-11T01:26:27.305Z,4.47
2019-02-11T01:28:56.434Z,4.42
2019-02-11T01:31:25.647Z,4.39
2019-02-11T01:33:55.050Z,4.41
2019-02-11T01:36:24.394Z,4.45
2019-02-11T01:38:53.532Z,4.45
2019-02-11T01:41:22.635Z,4.57
2019-02-11T01:43:51.967Z,4.55
2019-02-11T01:46:21.216Z,4.48
2019-02-11T01:48:50.292Z,4.52
2019-02-11T01:51:19.456Z,4.59
2019-02-11T01:53:48.554Z,4.45
2019-02-11T01:56:17.663Z,4.51
2019-02-11T01:58:46.769Z,4.46
2019-02-11T02:01:15.886Z,4.42
2019-02-11T02:03:44.984Z,4.35
2019-02-11T02:06:14.088Z,4.20
2019-02-11T02:08:43.341Z,4.36
2019-02-11T02:11:12.469Z,4.37
2019-02-11T02:13:44.756Z,4.48
2019-02-11T02:16:12.474Z,4.35
2019-02-11T02:18:41.553Z,4.32
2019-02-11T02:21:10.696Z,4.36
2019-02-11T02:23:39.755Z,4.40
2019-02-11T02:26:08.869Z,4.29
2019-02-11T02:28:37.988Z,4.42
2019-02-11T02:31:07.154Z,4.46
2019-02-11T02:33:36.339Z,4.33
2019-02-11T02:36:05.493Z,4.39
2019-02-11T02:38:34.610Z,4.32
2019-02-11T02:41:03.781Z,4.33
2019-02-11T02:43:33.325Z,4.29
2019-02-11T02:46:02.508Z,4.28
2019-02-11T02:48:31.612Z,4.29
2019-02-11T02:51:00.712Z,4.38
2019-02-11T02:53:29.846Z,4.25
2019-02-11T02:55:58.935Z,4.24
2019-02-11T02:58:28.001Z,4.39
2019-02-11T03:00:57.150Z,4.24
2019-02-11T03:03:26.206Z,4.24
2019-02-11T03:05:55.384Z,4.44
2019-02-11T03:08:24.508Z,4.31
2019-02-11T03:10:53.657Z,4.27
2019-02-11T03:13:22.774Z,4.42
2019-02-11T03:15:51.895Z,4.31
2019-02-11T03:18:21.031Z,4.30
2019-02-11T03:20:50.224Z,4.35
2019-02-11T03:23:19.303Z,4.23
2019-02-11T03:25:48.377Z,4.32
2019-02-11T03:28:17.504Z,4.39
2019-02-11T03:30:46.628Z,4.29
2019-02-11T03:33:15.750Z,4.32
2019-02-11T03:35:44.870Z,4.11
2019-02-11T03:38:14.042Z,4.09
2019-02-11T03:40:43.168Z,4.19
2019-02-11T03:43:12.370Z,4.12
2019-02-11T03:45:41.485Z,4.11
2019-02-11T03:48:10.566Z,4.08
2019-02-11T03:50:39.735Z,4.08
2019-02-11T03:53:08.783Z,4.08
2019-02-11T03:55:37.919Z,4.05
2019-02-11T03:58:06.995Z,4.07
2019-02-11T04:00:36.095Z,4.08
2019-02-11T04:03:05.200Z,4.01
2019-02-11T04:05:34.277Z,4.09
2019-02-11T04:08:03.403Z,3.92
2019-02-11T04:10:32.574Z,3.97
2019-02-11T04:13:01.697Z,3.93
2019-02-11T04:15:30.822Z,3.90
2019-02-11T04:18:00.072Z,3.90
2019-02-11T04:20:29.168Z,3.88
2019-02-11T04:22:58.326Z,4.04
2019-02-11T04:25:28.182Z,3.94
2019-02-11T04:27:57.482Z,3.86
2019-02-11T04:30:26.602Z,3.86
2019-02-11T04:32:55.751Z,3.83
2019-02-11T04:35:24.803Z,3.83
2019-02-11T04:37:53.936Z,3.81
2019-02-11T04:40:23.216Z,3.78
2019-02-11T04:42:52.560Z,3.65
2019-02-11T04:45:21.899Z,3.66
2019-02-11T04:47:51.096Z,3.74
2019-02-11T04:50:20.264Z,3.62
2019-02-11T04:52:49.853Z,3.44
2019-02-11T04:55:19.706Z,3.44
2019-02-11T04:57:48.834Z,3.46
2019-02-11T05:00:18.529Z,3.42
2019-02-11T05:02:47.820Z,3.39
2019-02-11T05:05:16.984Z,3.41
2019-02-11T05:07:46.160Z,3.36
2019-02-11T05:10:15.357Z,3.37
2019-02-11T05:12:44.450Z,3.54
2019-02-11T05:15:13.567Z,3.51
2019-02-11T05:17:42.680Z,3.54
2019-02-11T05:20:11.768Z,3.49
2019-02-11T05:22:40.897Z,3.56
2019-02-11T05:25:09.961Z,3.48
2019-02-11T05:27:39.101Z,3.31
2019-02-11T05:30:08.629Z,3.35
2019-02-11T05:32:37.740Z,3.40
2019-02-11T05:35:06.995Z,3.35
2019-02-11T05:37:36.174Z,3.19
2019-02-11T05:40:05.789Z,3.15
2019-02-11T05:42:34.914Z,3.12
2019-02-11T05:45:04.031Z,3.10
2019-02-11T05:47:33.134Z,3.09
2019-02-11T05:50:02.291Z,3.09
2019-02-11T05:52:31.376Z,3.02
2019-02-11T05:55:00.452Z,3.00
2019-02-11T05:57:29.603Z,3.21
2019-02-11T05:59:58.708Z,3.01
2019-02-11T06:02:27.882Z,3.06
2019-02-11T06:04:57.012Z,2.99
2019-02-11T06:07:26.229Z,2.82
2019-02-11T06:09:55.424Z,2.92
2019-02-11T06:12:24.677Z,2.74
2019-02-11T06:14:55.436Z,2.84
2019-02-11T06:17:24.808Z,2.80
2019-02-11T06:19:53.959Z,2.70
2019-02-11T06:22:23.111Z,2.71
2019-02-11T06:24:52.260Z,2.81
2019-02-11T06:27:21.423Z,2.87
2019-02-11T06:29:50.619Z,2.80
2019-02-11T06:32:19.733Z,2.77
2019-02-11T06:34:48.990Z,2.85
2019-02-11T06:37:18.118Z,2.84
2019-02-11T06:39:48.578Z,2.81
2019-02-11T06:42:17.645Z,2.84
2019-02-11T06:44:46.824Z,2.90
2019-02-11T06:47:15.941Z,2.93
2019-02-11T06:49:45.272Z,2.80
2019-02-11T06:52:14.362Z,2.93
2019-02-11T06:54:43.527Z,2.94
2019-02-11T06:57:12.673Z,2.72
2019-02-11T06:59:41.957Z,2.86
2019-02-11T07:02:11.078Z,2.90
2019-02-11T07:04:40.173Z,2.82
2019-02-11T07:07:09.514Z,2.87
2019-02-11T07:09:38.672Z,2.88
2019-02-11T07:12:08.530Z,2.92
2019-02-11T07:14:37.984Z,2.95
2019-02-11T07:17:07.146Z,3.00
2019-02-11T07:19:36.356Z,3.05
2019-02-11T07:22:05.420Z,3.03
2019-02-11T07:24:35.143Z,2.95
2019-02-11T07:27:04.280Z,2.90
2019-02-11T07:29:33.372Z,3.00
2019-02-11T07:32:02.532Z,2.98
2019-02-11T07:34:31.687Z,2.80
2019-02-11T07:37:00.843Z,3.07
2019-02-11T07:39:30.132Z,3.15
2019-02-11T07:42:26.130Z,3.41
2019-02-11T07:44:57.632Z,3.44
2019-02-11T07:47:27.337Z,3.21
2019-02-11T07:49:56.453Z,3.35
2019-02-11T07:52:27.095Z,3.47
2019-02-11T07:54:57.011Z,3.70
2019-02-11T07:57:26.692Z,3.46
2019-02-11T07:59:57.287Z,3.56
2019-02-11T08:02:26.617Z,3.51
2019-02-11T08:04:56.250Z,3.76
2019-02-11T08:07:25.483Z,3.64
2019-02-11T08:09:54.760Z,3.80
2019-02-11T08:12:24.054Z,3.85
2019-02-11T08:14:53.180Z,4.00
2019-02-11T08:17:23.027Z,4.19
2019-02-11T08:19:52.307Z,4.08
2019-02-11T08:22:21.487Z,4.14
2019-02-11T08:24:50.658Z,4.21
2019-02-11T08:27:20.092Z,4.57
2019-02-11T08:29:51.295Z,5.05
2019-02-11T08:32:23.769Z,4.83
2019-02-11T08:34:53.002Z,4.85
2019-02-11T08:37:22.200Z,4.76
2019-02-11T08:39:51.301Z,4.88
2019-02-11T08:42:20.866Z,4.59
2019-02-11T08:44:50.116Z,4.90
2019-02-11T08:47:19.881Z,5.31
2019-02-11T08:49:49.107Z,5.13
2019-02-11T08:52:18.380Z,5.00
2019-02-11T08:54:47.506Z,4.88
2019-02-11T08:57:16.669Z,4.86
2019-02-11T08:59:45.900Z,4.65
2019-02-11T09:02:15.361Z,4.61
2019-02-11T09:04:44.533Z,4.63
2019-02-11T09:07:14.025Z,4.67
2019-02-11T09:09:43.131Z,4.94
2019-02-11T09:12:12.289Z,5.00
2019-02-11T09:14:51.918Z,5.44
2019-02-11T09:17:21.074Z,5.21
2019-02-11T09:19:50.162Z,5.54
2019-02-11T09:22:20.868Z,5.28
2019-02-11T09:24:50.055Z,5.26
2019-02-11T09:27:19.254Z,4.98
2019-02-11T09:29:48.298Z,4.77
2019-02-11T09:32:18.268Z,4.89
2019-02-11T09:34:47.519Z,5.09
2019-02-11T09:37:18.150Z,5.32
2019-02-11T09:39:47.295Z,5.73
2019-02-11T09:42:16.443Z,5.97
2019-02-11T09:44:45.589Z,6.29
2019-02-11T09:47:14.823Z,7.05
2019-02-11T09:49:43.880Z,7.04
2019-02-11T09:52:13.081Z,6.79
2019-02-11T09:54:42.232Z,6.34
2019-02-11T09:57:11.409Z,6.27
2019-02-11T09:59:44.830Z,6.14
2019-02-11T10:02:15.236Z,6.31
2019-02-11T10:04:44.314Z,6.03
2019-02-11T10:07:13.480Z,5.76
2019-02-11T10:09:42.670Z,5.85
2019-02-11T10:12:11.856Z,5.45
2019-02-11T10:14:41.187Z,5.64
2019-02-11T10:17:10.299Z,5.47
2019-02-11T10:19:39.670Z,5.60
2019-02-11T10:22:08.972Z,5.75
2019-02-11T10:24:46.234Z,5.72
2019-02-11T10:27:15.476Z,5.60
2019-02-11T10:29:44.546Z,5.63
2019-02-11T10:32:13.767Z,5.63
2019-02-11T10:34:44.378Z,5.75
2019-02-11T10:37:13.540Z,5.63
2019-02-11T10:39:42.659Z,5.58
2019-02-11T10:42:11.850Z,5.80
2019-02-11T10:44:41.008Z,6.01
2019-02-11T10:47:10.192Z,6.22
2019-02-11T10:49:39.408Z,6.09
2019-02-11T10:52:08.454Z,6.25
2019-02-11T10:54:37.625Z,6.10
2019-02-11T10:57:06.755Z,6.04
2019-02-11T10:59:35.952Z,5.89
2019-02-11T11:02:05.053Z,5.84
2019-02-11T11:04:34.235Z,5.72
2019-02-11T11:07:03.479Z,6.06
2019-02-11T11:09:32.630Z,6.11
2019-02-11T11:12:01.732Z,6.16
2019-02-11T11:14:30.899Z,6.24
2019-02-11T11:17:00.027Z,6.22
2019-02-11T11:19:29.185Z,6.03
2019-02-11T11:21:58.888Z,5.95
2019-02-11T11:24:28.048Z,5.96
2019-02-11T11:26:57.371Z,5.91
2019-02-11T11:29:27.238Z,5.92
2019-02-11T11:31:56.751Z,5.95
2019-02-11T11:34:25.958Z,5.92
2019-02-11T11:36:55.074Z,6.04
2019-02-11T11:39:26.928Z,5.98
2019-02-11T11:41:57.340Z,5.95
2019-02-11T11:44:27.311Z,6.09
2019-02-11T11:46:58.363Z,6.16
2019-02-11T11:49:30.814Z,6.09
2019-02-11T11:52:03.265Z,6.11
2019-02-11T11:54:34.732Z,6.21
2019-02-11T11:57:06.689Z,6.22
2019-02-11T11:59:38.342Z,6.48
2019-02-11T12:02:09.891Z,6.94
2019-02-11T12:04:39.405Z,6.93
2019-02-11T12:07:08.493Z,6.73
2019-02-11T12:09:37.924Z,6.81
2019-02-11T12:12:07.659Z,6.50
2019-02-11T12:14:37.271Z,6.14
2019-02-11T12:17:06.503Z,6.20
2019-02-11T12:19:35.613Z,6.52
2019-02-11T12:22:06.877Z,6.65
2019-02-11T12:24:38.502Z,6.69
2019-02-11T12:27:08.043Z,6.75
2019-02-11T12:29:44.437Z,7.17
2019-02-11T12:32:17.025Z,6.91
2019-02-11T12:34:46.285Z,6.71
2019-02-11T12:37:18.349Z,6.92
2019-02-11T12:39:49.075Z,7.15
2019-02-11T12:42:18.218Z,7.62
2019-02-11T12:44:47.384Z,8.24
2019-02-11T12:47:16.717Z,7.64
2019-02-11T12:49:45.957Z,7.30
2019-02-11T12:52:15.868Z,6.97
2019-02-11T12:54:45.626Z,6.86
2019-02-11T12:57:14.870Z,6.72
2019-02-11T12:59:44.267Z,6.67
2019-02-11T13:02:14.098Z,6.64
2019-02-11T13:04:43.626Z,6.66
2019-02-11T13:07:12.908Z,6.65
2019-02-11T13:09:42.016Z,6.38
2019-02-11T13:12:11.132Z,6.41
2019-02-11T13:14:40.655Z,6.50
2019-02-11T13:17:15.419Z,6.26
2019-02-11T13:19:40.659Z,6.61
2019-02-11T13:22:09.803Z,6.65
2019-02-11T13:24:38.968Z,6.63
2019-02-11T13:27:08.124Z,6.65
2019-02-11T13:29:37.225Z,6.72
2019-02-11T13:32:10.439Z,6.66
2019-02-11T13:34:39.450Z,4.10
2019-02-11T13:37:08.599Z,7.03
2019-02-11T13:39:38.986Z,7.14
2019-02-11T13:42:08.318Z,7.39
2019-02-11T13:44:37.453Z,7.46
2019-02-11T13:47:07.015Z,7.18
2019-02-11T13:49:36.210Z,7.18
2019-02-11T13:52:05.595Z,7.43
2019-02-11T13:54:35.341Z,7.40
2019-02-11T13:57:04.856Z,7.33
2019-02-11T13:59:34.377Z,7.42
2019-02-11T14:02:03.589Z,7.52
2019-02-11T14:04:33.014Z,7.93
2019-02-11T14:07:02.845Z,7.65
2019-02-11T14:09:32.762Z,7.06
2019-02-11T14:12:04.296Z,6.96
2019-02-11T14:14:33.612Z,7.02
2019-02-11T14:17:03.061Z,7.16
2019-02-11T14:19:32.643Z,7.03
2019-02-11T14:22:02.405Z,7.21
2019-02-11T14:24:32.224Z,7.06
2019-02-11T14:27:01.989Z,6.92
2019-02-11T14:29:31.778Z,6.95
2019-02-11T14:32:01.209Z,6.81
2019-02-11T14:34:31.159Z,6.74
2019-02-11T14:37:01.039Z,6.80
2019-02-11T14:39:30.944Z,6.75
2019-02-11T14:42:00.495Z,6.96
2019-02-11T14:44:29.745Z,6.77
2019-02-11T14:46:58.977Z,6.79
2019-02-11T14:49:28.048Z,6.70
2019-02-11T14:51:57.181Z,6.69
2019-02-11T14:54:26.380Z,6.75
2019-02-11T14:56:56.554Z,6.89
2019-02-11T14:59:25.771Z,6.93
2019-02-11T15:01:54.940Z,6.86
2019-02-11T15:04:24.215Z,6.86
2019-02-11T15:07:00.532Z,6.46
2019-02-11T15:09:29.762Z,6.48
2019-02-11T15:12:00.313Z,6.46
2019-02-11T15:14:29.480Z,6.36
2019-02-11T15:16:58.715Z,6.32
2019-02-11T15:19:34.447Z,6.14
2019-02-11T15:22:04.623Z,6.28
2019-02-11T15:24:33.778Z,6.32
2019-02-11T15:27:02.904Z,6.35
2019-02-11T15:29:33.324Z,6.39
2019-02-11T15:32:02.449Z,6.48
2019-02-11T15:34:31.786Z,6.43
2019-02-11T15:37:00.841Z,6.51
2019-02-11T15:39:29.982Z,6.63
2019-02-11T15:41:59.059Z,6.75
2019-02-11T15:44:28.242Z,6.93
2019-02-11T15:46:57.383Z,6.75
2019-02-11T15:49:26.598Z,6.86
2019-02-11T15:51:55.834Z,6.81
2019-02-11T15:54:25.015Z,6.52
2019-02-11T15:56:54.133Z,6.55
2019-02-11T15:59:23.306Z,6.54
2019-02-11T16:01:52.460Z,6.26
2019-02-11T16:04:21.554Z,6.39
2019-02-11T16:06:50.688Z,6.28
2019-02-11T16:09:19.937Z,6.28
2019-02-11T16:11:49.018Z,6.21
2019-02-11T16:14:18.175Z,6.24
2019-02-11T16:16:47.312Z,6.22
2019-02-11T16:19:16.464Z,6.15
2019-02-11T16:21:45.547Z,6.04
2019-02-11T16:24:14.693Z,5.99
2019-02-11T16:26:43.838Z,5.91
2019-02-11T16:29:13.051Z,5.71
2019-02-11T16:31:42.227Z,5.68
2019-02-11T16:34:11.344Z,5.77
2019-02-11T16:36:43.791Z,5.60
2019-02-11T16:39:12.911Z,5.53
2019-02-11T16:41:42.036Z,5.55
2019-02-11T16:44:11.872Z,5.56
2019-02-11T16:46:41.081Z,5.44
2019-02-11T16:49:10.259Z,5.62
2019-02-11T16:51:39.422Z,5.58
2019-02-11T16:54:08.492Z,5.65
2019-02-11T16:56:37.644Z,5.51
2019-02-11T16:59:06.698Z,5.70
2019-02-11T17:01:35.930Z,5.49
2019-02-11T17:04:05.113Z,5.50
2019-02-11T17:06:34.309Z,5.54
2019-02-11T17:09:04.704Z,5.39
2019-02-11T17:11:33.875Z,5.37
2019-02-11T17:14:03.015Z,5.28
2019-02-11T17:16:32.306Z,5.28
2019-02-11T17:19:08.871Z,5.34
2019-02-11T17:21:32.233Z,5.32
2019-02-11T17:24:01.338Z,5.57
2019-02-11T17:26:33.115Z,5.50
2019-02-11T17:29:03.692Z,5.39
2019-02-11T17:31:32.877Z,5.32
2019-02-11T17:34:02.123Z,5.29
2019-02-11T17:36:31.279Z,5.25
2019-02-11T17:39:00.458Z,5.39
2019-02-11T17:41:29.666Z,5.26
2019-02-11T17:43:58.751Z,5.29
2019-02-11T17:46:28.282Z,5.12
2019-02-11T17:49:02.222Z,5.16
2019-02-11T17:51:31.423Z,5.11
2019-02-11T17:54:00.595Z,5.15
2019-02-11T17:56:29.791Z,4.99
2019-02-11T17:59:00.228Z,4.91
2019-02-11T18:01:29.398Z,4.79
2019-02-11T18:03:58.535Z,4.66
2019-02-11T18:06:27.747Z,4.82
2019-02-11T18:08:56.879Z,4.85
2019-02-11T18:11:26.097Z,4.65
2019-02-11T18:13:55.248Z,4.67
2019-02-11T18:16:24.607Z,4.75
2019-02-11T18:18:53.786Z,4.70
2019-02-11T18:21:23.027Z,4.47
2019-02-11T18:23:52.176Z,4.53
2019-02-11T18:26:23.794Z,4.54
2019-02-11T18:28:55.777Z,4.46
2019-02-11T18:31:25.058Z,4.51
2019-02-11T18:33:54.129Z,4.57
2019-02-11T18:36:23.304Z,4.60
2019-02-11T18:38:52.423Z,4.71
2019-02-11T18:41:21.568Z,4.87
2019-02-11T18:43:50.707Z,4.83
2019-02-11T18:46:19.843Z,4.83
2019-02-11T18:48:49.039Z,4.65
2019-02-11T18:51:18.148Z,4.68
2019-02-11T18:53:47.355Z,4.82
2019-02-11T18:56:16.421Z,5.04
2019-02-11T18:58:45.586Z,4.77
2019-02-11T19:01:14.769Z,4.64
2019-02-11T19:03:44.099Z,4.69
2019-02-11T19:06:13.245Z,4.83
2019-02-11T19:08:42.331Z,4.84
2019-02-11T19:11:11.364Z,5.11
2019-02-11T19:13:40.527Z,5.00
2019-02-11T19:16:10.673Z,4.92
2019-02-11T19:18:39.769Z,4.99
2019-02-11T19:21:08.966Z,4.94
2019-02-11T19:23:38.125Z,4.95
2019-02-11T19:26:09.176Z,5.23
2019-02-11T19:28:38.322Z,5.09
2019-02-11T19:31:07.435Z,5.07
2019-02-11T19:33:36.649Z,4.96
2019-02-11T19:36:05.715Z,4.95
2019-02-11T19:38:34.857Z,4.97
2019-02-11T19:41:05.012Z,4.91
2019-02-11T19:43:34.088Z,4.84
2019-02-11T19:46:03.243Z,4.90
2019-02-11T19:48:33.415Z,4.76
2019-02-11T19:51:02.522Z,4.76
2019-02-11T19:53:31.583Z,4.72
2019-02-11T19:56:00.618Z,4.58
2019-02-11T19:58:30.842Z,4.78
2019-02-11T20:00:59.900Z,4.69
2019-02-11T20:03:28.975Z,4.77
2019-02-11T20:05:58.007Z,4.94
2019-02-11T20:08:28.383Z,4.92
2019-02-11T20:10:57.463Z,4.89
2019-02-11T20:13:26.521Z,4.82
2019-02-11T20:15:55.674Z,4.78
2019-02-11T20:18:24.776Z,5.12
2019-02-11T20:20:55.887Z,4.83
2019-02-11T20:23:24.982Z,4.93
2019-02-11T20:25:54.092Z,4.93
2019-02-11T20:28:23.213Z,4.90
2019-02-11T20:30:52.368Z,4.88
2019-02-11T20:33:21.477Z,4.85
2019-02-11T20:35:52.893Z,4.70
2019-02-11T20:38:23.950Z,4.62
2019-02-11T20:40:55.074Z,4.56
2019-02-11T20:43:24.159Z,4.59
2019-02-11T20:45:53.307Z,4.78
2019-02-11T20:48:26.658Z,4.77
2019-02-11T20:50:55.721Z,4.76
2019-02-11T20:53:24.814Z,4.47
2019-02-11T20:55:54.115Z,4.66
2019-02-11T20:58:24.598Z,4.82
2019-02-11T21:00:53.727Z,4.79
2019-02-11T21:03:22.786Z,4.83
2019-02-11T21:05:51.983Z,4.84
2019-02-11T21:08:21.095Z,4.70
2019-02-11T21:10:50.386Z,4.65
2019-02-11T21:13:21.761Z,4.36
2019-02-11T21:15:50.881Z,4.40
2019-02-11T21:18:19.994Z,4.48
2019-02-11T21:20:49.175Z,4.26
2019-02-11T21:23:18.273Z,4.06
2019-02-11T21:25:49.512Z,4.05
2019-02-11T21:28:18.603Z,3.92
2019-02-11T21:30:49.927Z,3.95
2019-02-11T21:33:19.109Z,3.90
2019-02-11T21:35:48.307Z,3.44
2019-02-11T21:38:17.874Z,4.18
2019-02-11T21:40:46.979Z,4.25
2019-02-11T21:43:16.080Z,4.22
2019-02-11T21:45:45.181Z,4.03
2019-02-11T21:48:14.418Z,4.20
2019-02-11T21:50:43.516Z,4.12
2019-02-11T21:53:12.644Z,4.01
2019-02-11T21:55:43.219Z,3.92
2019-02-11T21:58:12.377Z,3.84
2019-02-11T22:00:41.504Z,3.89
2019-02-11T22:03:10.541Z,3.65
2019-02-11T22:05:39.696Z,3.70
2019-02-11T22:08:10.311Z,3.74
2019-02-11T22:10:39.480Z,3.67
2019-02-11T22:13:08.596Z,3.64
2019-02-11T22:15:37.719Z,3.50
2019-02-11T22:18:06.844Z,3.44
2019-02-11T22:20:36.012Z,3.39
2019-02-11T22:23:05.046Z,3.39
2019-02-11T22:25:34.266Z,2.99
2019-02-11T22:28:03.323Z,3.30
2019-02-11T22:30:32.392Z,3.18
2019-02-11T22:33:01.943Z,3.26
2019-02-11T22:35:31.285Z,3.23
2019-02-11T22:38:02.026Z,3.11
2019-02-11T22:40:33.723Z,3.20
2019-02-11T22:43:03.850Z,3.22
2019-02-11T22:45:34.003Z,3.16
2019-02-11T22:48:06.956Z,3.10
2019-02-11T22:50:43.042Z,3.21
2019-02-11T22:53:08.872Z,3.20
2019-02-11T22:55:38.038Z,3.08
2019-02-11T22:58:08.599Z,3.63
2019-02-11T23:00:47.861Z,3.54
2019-02-11T23:03:19.027Z,3.18
2019-02-11T23:05:48.155Z,3.37
2019-02-11T23:08:19.332Z,3.24
2019-02-11T23:10:51.636Z,3.29
2019-02-11T23:13:23.576Z,3.31
2019-02-11T23:15:54.468Z,3.17
2019-02-11T23:18:25.008Z,3.14
2019-02-11T23:20:54.092Z,3.07
2019-02-11T23:23:23.363Z,3.07
2019-02-11T23:25:54.547Z,2.97
2019-02-11T23:28:26.041Z,2.91
2019-02-11T23:30:55.219Z,2.80
2019-02-11T23:33:25.347Z,2.68
2019-02-11T23:35:54.475Z,2.67
2019-02-11T23:38:23.596Z,2.56
2019-02-11T23:40:52.766Z,2.42
2019-02-11T23:43:21.960Z,2.27
2019-02-11T23:45:52.589Z,2.21
2019-02-11T23:48:23.839Z,2.22
2019-02-11T23:51:00.268Z,2.25
2019-02-11T23:53:23.911Z,2.15
2019-02-11T23:55:53.002Z,2.07
2019-02-11T23:58:23.396Z,2.10
